sensor_id;sensor_type;location;lat;lon;timestamp;pressure;altitude;pressure_sealevel;temperature;humidity
54918;BME280;40818;50.562;7.454;2023-11-21T08:59:11;97539.88;;;5.87;100.00
54918;BME280;40818;50.562;7.454;2023-11-21T09:09:15;97552.25;;;6.48;100.00
54918;BME280;40818;50.562;7.454;2023-11-21T09:19:22;97574.56;;;6.83;100.00
54918;BME280;40818;50.562;7.454;2023-11-21T09:29:26;97583.34;;;7.12;100.00
54918;BME280;40818;50.562;7.454;2023-11-21T09:39:33;97600.53;;;7.29;100.00
54918;BME280;40818;50.562;7.454;2023-11-21T09:49:37;97609.72;;;7.65;100.00
54918;BME280;40818;50.562;7.454;2023-11-21T09:59:45;97621.25;;;7.44;100.00
54918;BME280;40818;50.562;7.454;2023-11-21T10:09:51;97620.66;;;7.39;100.00
54918;BME280;40818;50.562;7.454;2023-11-21T10:19:57;97627.09;;;7.47;100.00
54918;BME280;40818;50.562;7.454;2023-11-21T10:30:01;97641.56;;;7.66;100.00
54918;BME280;40818;50.562;7.454;2023-11-21T10:40:10;97647.25;;;7.57;100.00
54918;BME280;40818;50.562;7.454;2023-11-21T10:50:14;97642.94;;;7.57;100.00
54918;BME280;40818;50.562;7.454;2023-11-21T11:00:21;97648.91;;;7.42;100.00
54918;BME280;40818;50.562;7.454;2023-11-21T11:10:26;97634.56;;;7.36;100.00
54918;BME280;40818;50.562;7.454;2023-11-21T11:20:34;97649.56;;;7.45;100.00
54918;BME280;40818;50.562;7.454;2023-11-21T11:30:50;97646.09;;;7.46;100.00
54918;BME280;40818;50.562;7.454;2023-11-21T11:41:01;97655.75;;;7.59;100.00
54918;BME280;40818;50.562;7.454;2023-11-21T11:51:09;97666.41;;;7.68;100.00
54918;BME280;40818;50.562;7.454;2023-11-21T12:01:19;97666.66;;;7.80;100.00
54918;BME280;40818;50.562;7.454;2023-11-21T12:11:30;97673.00;;;7.74;100.00
54918;BME280;40818;50.562;7.454;2023-11-21T12:21:38;97669.50;;;7.75;100.00
54918;BME280;40818;50.562;7.454;2023-11-21T12:31:45;97676.84;;;7.67;100.00
54918;BME280;40818;50.562;7.454;2023-11-21T12:41:51;97685.41;;;7.67;100.00
54918;BME280;40818;50.562;7.454;2023-11-21T12:51:54;97695.69;;;7.85;100.00
54918;BME280;40818;50.562;7.454;2023-11-21T13:02:00;97703.75;;;7.95;100.00
54918;BME280;40818;50.562;7.454;2023-11-21T13:12:07;97702.91;;;7.94;100.00
54918;BME280;40818;50.562;7.454;2023-11-21T13:22:13;97715.44;;;7.70;100.00
54918;BME280;40818;50.562;7.454;2023-11-21T13:32:19;97713.50;;;7.90;100.00
54918;BME280;40818;50.562;7.454;2023-11-21T13:42:25;97727.75;;;8.13;100.00
54918;BME280;40818;50.562;7.454;2023-11-21T13:52:29;97739.94;;;8.11;100.00
54918;BME280;40818;50.562;7.454;2023-11-21T14:02:37;97754.72;;;8.09;100.00
54918;BME280;40818;50.562;7.454;2023-11-21T14:12:44;97763.94;;;7.97;100.00
54918;BME280;40818;50.562;7.454;2023-11-21T14:22:50;97763.44;;;7.90;100.00
54918;BME280;40818;50.562;7.454;2023-11-21T14:32:53;97773.00;;;7.72;100.00
54918;BME280;40818;50.562;7.454;2023-11-21T14:42:59;97770.59;;;7.69;100.00
54918;BME280;40818;50.562;7.454;2023-11-21T14:53:05;97795.09;;;7.62;100.00
54918;BME280;40818;50.562;7.454;2023-11-21T15:03:12;97795.25;;;7.59;100.00
54918;BME280;40818;50.562;7.454;2023-11-21T15:13:34;97806.22;;;7.46;100.00
54918;BME280;40818;50.562;7.454;2023-11-21T15:23:40;97807.47;;;7.22;100.00
54918;BME280;40818;50.562;7.454;2023-11-21T15:33:44;97817.56;;;7.26;100.00
54918;BME280;40818;50.562;7.454;2023-11-21T15:43:50;97821.81;;;7.27;100.00
54918;BME280;40818;50.562;7.454;2023-11-21T15:53:54;97836.94;;;7.17;100.00
54918;BME280;40818;50.562;7.454;2023-11-21T16:04:01;97855.03;;;7.17;100.00
54918;BME280;40818;50.562;7.454;2023-11-21T16:14:04;97856.53;;;7.04;100.00
54918;BME280;40818;50.562;7.454;2023-11-21T16:24:11;97875.50;;;6.86;100.00
